Terminal Aerodrome Forecast
Issued by NWS Buffalo, NY

Home | Current Version | Previous Version | Text Only | Print | Product List | Glossary On
Versions: 1 2 3 4 5 6 7 8 9 10 11 12 13 14 15 16 17 18 19 20 21 22 23 24 25 26 27
000
FTUS41 KBUF 291131
TAFART
TAF
KART 291131Z 2912/3012 00000KT P6SM SKC
     FM291400 21004KT P6SM SKC
     FM292300 17004KT P6SM FEW250
     FM300400 16008KT P6SM SCT250
     FM300600 18009KT P6SM BKN070
     FM301100 19011KT P6SM BKN050=

USA.gov is the U.S. government's official web portal to all federal, state and local government web resources and services.